Terminal Aerodrome Forecast
Issued by NWS

Home | Current Version | Previous Version | Text Only | Print | Product List | Glossary On
Versions: 1 2 3 4 5 6 7 8 9 10 11 12 13 14 15 16
000
FTAK31 PAJN 230529
TAFAWG
TAF
PAWG 230529Z 2306/2406 11006KT 6SM -RASN BKN006 OVC015
     FM230900 12011KT 2SM -SN BKN006 OVC015 WS020/24030KT
     FM231300 14006KT 5SM -SHSNRA SCT007 OVC025 WS020/27025KT
      TEMPO 2316/2320 3SM -SHSNRA OVC015
     FM240000 26009KT P6SM -SHRASN OVC025
      AMD LTD TO CLD VIS AND WIND 2306/2315=

USA.gov is the U.S. government's official web portal to all federal, state and local government web resources and services.